sensor_id;sensor_type;location;lat;lon;timestamp;P1;durP1;ratioP1;P2;durP2;ratioP2
70832;SDS011;71099;59.528;17.886;2024-01-27T00:01:34;2.15;;;1.75;;
70832;SDS011;71099;59.528;17.886;2024-01-27T00:03:59;2.08;;;1.75;;
70832;SDS011;71099;59.528;17.886;2024-01-27T00:06:25;3.83;;;2.05;;
70832;SDS011;71099;59.528;17.886;2024-01-27T00:08:50;2.30;;;1.75;;
70832;SDS011;71099;59.528;17.886;2024-01-27T00:11:16;5.35;;;2.25;;
70832;SDS011;71099;59.528;17.886;2024-01-27T00:13:41;2.75;;;1.65;;
70832;SDS011;71099;59.528;17.886;2024-01-27T00:16:06;3.05;;;2.15;;
70832;SDS011;71099;59.528;17.886;2024-01-27T00:18:32;4.22;;;2.95;;
70832;SDS011;71099;59.528;17.886;2024-01-27T00:21:00;3.65;;;2.78;;
70832;SDS011;71099;59.528;17.886;2024-01-27T00:23:26;5.13;;;2.55;;
70832;SDS011;71099;59.528;17.886;2024-01-27T00:25:51;5.10;;;2.83;;
70832;SDS011;71099;59.528;17.886;2024-01-27T00:28:17;4.40;;;3.20;;
70832;SDS011;71099;59.528;17.886;2024-01-27T00:30:42;3.97;;;2.47;;
70832;SDS011;71099;59.528;17.886;2024-01-27T00:33:07;5.95;;;3.03;;
70832;SDS011;71099;59.528;17.886;2024-01-27T00:35:33;5.97;;;3.22;;
70832;SDS011;71099;59.528;17.886;2024-01-27T00:37:58;6.32;;;3.08;;
70832;SDS011;71099;59.528;17.886;2024-01-27T00:40:24;5.30;;;3.08;;
70832;SDS011;71099;59.528;17.886;2024-01-27T00:42:49;6.18;;;3.58;;
70832;SDS011;71099;59.528;17.886;2024-01-27T00:45:14;5.50;;;2.75;;
70832;SDS011;71099;59.528;17.886;2024-01-27T00:47:40;7.15;;;3.45;;
70832;SDS011;71099;59.528;17.886;2024-01-27T00:50:05;5.65;;;3.28;;
70832;SDS011;71099;59.528;17.886;2024-01-27T00:52:33;6.07;;;3.22;;
70832;SDS011;71099;59.528;17.886;2024-01-27T00:54:59;5.63;;;3.42;;
70832;SDS011;71099;59.528;17.886;2024-01-27T00:57:24;5.53;;;3.63;;
70832;SDS011;71099;59.528;17.886;2024-01-27T00:59:50;5.25;;;3.25;;
70832;SDS011;71099;59.528;17.886;2024-01-27T01:02:15;4.93;;;3.17;;
70832;SDS011;71099;59.528;17.886;2024-01-27T01:04:41;5.90;;;3.10;;
70832;SDS011;71099;59.528;17.886;2024-01-27T01:07:07;4.38;;;2.70;;
70832;SDS011;71099;59.528;17.886;2024-01-27T01:09:33;5.38;;;3.13;;
70832;SDS011;71099;59.528;17.886;2024-01-27T01:11:59;4.15;;;2.58;;
70832;SDS011;71099;59.528;17.886;2024-01-27T01:14:24;3.80;;;2.65;;
70832;SDS011;71099;59.528;17.886;2024-01-27T01:16:50;4.32;;;2.92;;
70832;SDS011;71099;59.528;17.886;2024-01-27T01:19:15;5.57;;;3.50;;
70832;SDS011;71099;59.528;17.886;2024-01-27T01:21:40;5.75;;;3.42;;
70832;SDS011;71099;59.528;17.886;2024-01-27T01:24:06;4.63;;;3.00;;
70832;SDS011;71099;59.528;17.886;2024-01-27T01:26:32;4.68;;;3.28;;
70832;SDS011;71099;59.528;17.886;2024-01-27T01:28:58;3.95;;;2.90;;
70832;SDS011;71099;59.528;17.886;2024-01-27T01:31:23;6.18;;;3.40;;
70832;SDS011;71099;59.528;17.886;2024-01-27T01:33:49;5.80;;;3.53;;
70832;SDS011;71099;59.528;17.886;2024-01-27T01:36:14;3.47;;;2.55;;
70832;SDS011;71099;59.528;17.886;2024-01-27T01:38:39;4.20;;;3.58;;
70832;SDS011;71099;59.528;17.886;2024-01-27T01:41:05;4.78;;;3.10;;
70832;SDS011;71099;59.528;17.886;2024-01-27T01:43:31;4.55;;;3.25;;
70832;SDS011;71099;59.528;17.886;2024-01-27T01:45:56;4.50;;;2.85;;
70832;SDS011;71099;59.528;17.886;2024-01-27T01:48:22;3.97;;;2.78;;
70832;SDS011;71099;59.528;17.886;2024-01-27T01:50:48;4.85;;;2.92;;
70832;SDS011;71099;59.528;17.886;2024-01-27T01:53:15;4.50;;;3.08;;
70832;SDS011;71099;59.528;17.886;2024-01-27T01:55:40;3.45;;;2.63;;
70832;SDS011;71099;59.528;17.886;2024-01-27T01:58:06;5.05;;;2.70;;
70832;SDS011;71099;59.528;17.886;2024-01-27T02:00:31;2.92;;;2.25;;
70832;SDS011;71099;59.528;17.886;2024-01-27T02:02:57;4.03;;;2.67;;
70832;SDS011;71099;59.528;17.886;2024-01-27T02:05:23;3.50;;;2.35;;
70832;SDS011;71099;59.528;17.886;2024-01-27T02:07:48;3.20;;;1.98;;
70832;SDS011;71099;59.528;17.886;2024-01-27T02:10:15;2.30;;;1.92;;
70832;SDS011;71099;59.528;17.886;2024-01-27T02:12:41;2.45;;;2.05;;
70832;SDS011;71099;59.528;17.886;2024-01-27T02:15:11;2.72;;;2.03;;
70832;SDS011;71099;59.528;17.886;2024-01-27T02:17:38;2.75;;;1.95;;
70832;SDS011;71099;59.528;17.886;2024-01-27T02:20:04;3.67;;;2.17;;
70832;SDS011;71099;59.528;17.886;2024-01-27T02:22:32;3.10;;;2.05;;
70832;SDS011;71099;59.528;17.886;2024-01-27T02:25:01;2.75;;;2.13;;
70832;SDS011;71099;59.528;17.886;2024-01-27T02:27:27;2.33;;;1.60;;
70832;SDS011;71099;59.528;17.886;2024-01-27T02:29:53;2.13;;;1.80;;
70832;SDS011;71099;59.528;17.886;2024-01-27T02:32:18;2.70;;;1.77;;
70832;SDS011;71099;59.528;17.886;2024-01-27T02:34:44;2.00;;;1.50;;
70832;SDS011;71099;59.528;17.886;2024-01-27T02:37:09;3.83;;;1.85;;
70832;SDS011;71099;59.528;17.886;2024-01-27T02:39:35;1.67;;;1.20;;
70832;SDS011;71099;59.528;17.886;2024-01-27T02:42:01;1.73;;;1.35;;
70832;SDS011;71099;59.528;17.886;2024-01-27T02:44:26;2.22;;;1.67;;
70832;SDS011;71099;59.528;17.886;2024-01-27T02:46:52;1.63;;;1.35;;
70832;SDS011;71099;59.528;17.886;2024-01-27T02:49:17;1.20;;;1.08;;
70832;SDS011;71099;59.528;17.886;2024-01-27T02:51:43;1.80;;;1.30;;
70832;SDS011;71099;59.528;17.886;2024-01-27T02:54:09;1.85;;;1.42;;
70832;SDS011;71099;59.528;17.886;2024-01-27T02:56:34;2.03;;;1.42;;
70832;SDS011;71099;59.528;17.886;2024-01-27T02:59:00;2.65;;;1.75;;
70832;SDS011;71099;59.528;17.886;2024-01-27T03:01:25;1.90;;;1.23;;
70832;SDS011;71099;59.528;17.886;2024-01-27T03:03:51;1.75;;;1.58;;
70832;SDS011;71099;59.528;17.886;2024-01-27T03:06:16;1.65;;;1.15;;
70832;SDS011;71099;59.528;17.886;2024-01-27T03:08:41;1.70;;;1.30;;
70832;SDS011;71099;59.528;17.886;2024-01-27T03:11:07;1.40;;;1.27;;
70832;SDS011;71099;59.528;17.886;2024-01-27T03:13:32;1.58;;;1.40;;
70832;SDS011;71099;59.528;17.886;2024-01-27T03:15:58;1.45;;;1.10;;
70832;SDS011;71099;59.528;17.886;2024-01-27T03:18:23;1.50;;;1.38;;
70832;SDS011;71099;59.528;17.886;2024-01-27T03:20:50;1.05;;;0.93;;
70832;SDS011;71099;59.528;17.886;2024-01-27T03:23:15;1.10;;;0.98;;
70832;SDS011;71099;59.528;17.886;2024-01-27T03:25:40;1.10;;;1.00;;
70832;SDS011;71099;59.528;17.886;2024-01-27T03:28:06;1.42;;;1.02;;
70832;SDS011;71099;59.528;17.886;2024-01-27T03:30:31;0.73;;;0.70;;
70832;SDS011;71099;59.528;17.886;2024-01-27T03:32:57;1.10;;;1.00;;
70832;SDS011;71099;59.528;17.886;2024-01-27T03:35:22;1.00;;;1.00;;
70832;SDS011;71099;59.528;17.886;2024-01-27T03:37:47;1.58;;;1.10;;
70832;SDS011;71099;59.528;17.886;2024-01-27T03:40:14;2.25;;;1.15;;
70832;SDS011;71099;59.528;17.886;2024-01-27T03:42:39;0.82;;;0.80;;
70832;SDS011;71099;59.528;17.886;2024-01-27T03:45:05;1.10;;;1.00;;
70832;SDS011;71099;59.528;17.886;2024-01-27T03:47:31;0.90;;;0.85;;
70832;SDS011;71099;59.528;17.886;2024-01-27T03:49:56;1.15;;;1.05;;
70832;SDS011;71099;59.528;17.886;2024-01-27T03:52:22;0.77;;;0.70;;
70832;SDS011;71099;59.528;17.886;2024-01-27T03:54:47;1.35;;;1.08;;
70832;SDS011;71099;59.528;17.886;2024-01-27T03:57:13;1.35;;;1.17;;
70832;SDS011;71099;59.528;17.886;2024-01-27T03:59:40;1.08;;;1.00;;
70832;SDS011;71099;59.528;17.886;2024-01-27T04:02:06;1.10;;;1.00;;
70832;SDS011;71099;59.528;17.886;2024-01-27T04:04:32;1.30;;;1.00;;
70832;SDS011;71099;59.528;17.886;2024-01-27T04:06:57;1.13;;;0.90;;
70832;SDS011;71099;59.528;17.886;2024-01-27T04:09:23;1.23;;;0.80;;
70832;SDS011;71099;59.528;17.886;2024-01-27T04:11:49;0.93;;;0.82;;
70832;SDS011;71099;59.528;17.886;2024-01-27T04:14:14;1.00;;;0.80;;
70832;SDS011;71099;59.528;17.886;2024-01-27T04:16:40;0.90;;;0.90;;
70832;SDS011;71099;59.528;17.886;2024-01-27T04:19:05;1.13;;;0.98;;
70832;SDS011;71099;59.528;17.886;2024-01-27T04:21:30;1.05;;;0.95;;
70832;SDS011;71099;59.528;17.886;2024-01-27T04:23:56;1.30;;;0.98;;
70832;SDS011;71099;59.528;17.886;2024-01-27T04:26:22;1.10;;;1.00;;
70832;SDS011;71099;59.528;17.886;2024-01-27T04:28:47;2.05;;;1.60;;
70832;SDS011;71099;59.528;17.886;2024-01-27T04:31:12;1.65;;;1.05;;
70832;SDS011;71099;59.528;17.886;2024-01-27T04:33:38;0.95;;;0.85;;
70832;SDS011;71099;59.528;17.886;2024-01-27T04:36:04;1.17;;;1.08;;
70832;SDS011;71099;59.528;17.886;2024-01-27T04:38:31;2.33;;;0.68;;
70832;SDS011;71099;59.528;17.886;2024-01-27T04:40:57;0.95;;;0.68;;
70832;SDS011;71099;59.528;17.886;2024-01-27T04:43:22;1.02;;;0.90;;
70832;SDS011;71099;59.528;17.886;2024-01-27T04:45:48;1.02;;;0.88;;
70832;SDS011;71099;59.528;17.886;2024-01-27T04:48:16;0.70;;;0.70;;
70832;SDS011;71099;59.528;17.886;2024-01-27T04:50:41;0.80;;;0.80;;
70832;SDS011;71099;59.528;17.886;2024-01-27T04:53:07;1.67;;;1.55;;
70832;SDS011;71099;59.528;17.886;2024-01-27T04:55:32;0.80;;;0.68;;
70832;SDS011;71099;59.528;17.886;2024-01-27T04:57:58;1.00;;;0.63;;
70832;SDS011;71099;59.528;17.886;2024-01-27T05:00:23;0.85;;;0.75;;
70832;SDS011;71099;59.528;17.886;2024-01-27T05:02:51;0.75;;;0.70;;
70832;SDS011;71099;59.528;17.886;2024-01-27T05:05:17;0.68;;;0.65;;
70832;SDS011;71099;59.528;17.886;2024-01-27T05:07:42;1.58;;;1.27;;
70832;SDS011;71099;59.528;17.886;2024-01-27T05:10:10;0.95;;;0.85;;
70832;SDS011;71099;59.528;17.886;2024-01-27T05:12:36;0.70;;;0.70;;
70832;SDS011;71099;59.528;17.886;2024-01-27T05:15:01;0.80;;;0.50;;
70832;SDS011;71099;59.528;17.886;2024-01-27T05:17:26;0.98;;;0.88;;
70832;SDS011;71099;59.528;17.886;2024-01-27T05:19:52;0.60;;;0.50;;
70832;SDS011;71099;59.528;17.886;2024-01-27T05:22:17;1.00;;;0.65;;
70832;SDS011;71099;59.528;17.886;2024-01-27T05:24:44;1.38;;;0.80;;
70832;SDS011;71099;59.528;17.886;2024-01-27T05:27:09;0.70;;;0.68;;
70832;SDS011;71099;59.528;17.886;2024-01-27T05:29:36;0.93;;;0.73;;
70832;SDS011;71099;59.528;17.886;2024-01-27T05:32:02;0.93;;;0.90;;
70832;SDS011;71099;59.528;17.886;2024-01-27T05:34:27;1.65;;;0.70;;
70832;SDS011;71099;59.528;17.886;2024-01-27T05:36:53;1.10;;;0.90;;
70832;SDS011;71099;59.528;17.886;2024-01-27T05:39:18;0.55;;;0.55;;
70832;SDS011;71099;59.528;17.886;2024-01-27T05:41:44;0.75;;;0.60;;
70832;SDS011;71099;59.528;17.886;2024-01-27T05:44:09;0.90;;;0.80;;
70832;SDS011;71099;59.528;17.886;2024-01-27T05:46:35;1.65;;;0.55;;
70832;SDS011;71099;59.528;17.886;2024-01-27T05:49:00;0.77;;;0.55;;
70832;SDS011;71099;59.528;17.886;2024-01-27T05:51:28;1.17;;;0.60;;
70832;SDS011;71099;59.528;17.886;2024-01-27T05:53:55;0.50;;;0.50;;
70832;SDS011;71099;59.528;17.886;2024-01-27T05:56:21;0.63;;;0.57;;
70832;SDS011;71099;59.528;17.886;2024-01-27T05:58:46;3.88;;;0.73;;
70832;SDS011;71099;59.528;17.886;2024-01-27T06:01:12;0.80;;;0.77;;
70832;SDS011;71099;59.528;17.886;2024-01-27T06:03:38;0.70;;;0.63;;
70832;SDS011;71099;59.528;17.886;2024-01-27T06:06:05;1.35;;;0.98;;
70832;SDS011;71099;59.528;17.886;2024-01-27T06:08:31;2.88;;;0.60;;
70832;SDS011;71099;59.528;17.886;2024-01-27T06:10:56;1.40;;;1.30;;
70832;SDS011;71099;59.528;17.886;2024-01-27T06:13:22;1.33;;;1.00;;
70832;SDS011;71099;59.528;17.886;2024-01-27T06:15:47;1.58;;;1.23;;
70832;SDS011;71099;59.528;17.886;2024-01-27T06:18:13;1.92;;;0.77;;
70832;SDS011;71099;59.528;17.886;2024-01-27T06:20:38;0.95;;;0.75;;
70832;SDS011;71099;59.528;17.886;2024-01-27T06:23:05;1.95;;;0.75;;
70832;SDS011;71099;59.528;17.886;2024-01-27T06:25:31;1.02;;;0.65;;
70832;SDS011;71099;59.528;17.886;2024-01-27T06:27:57;1.20;;;0.80;;
70832;SDS011;71099;59.528;17.886;2024-01-27T06:30:22;1.20;;;0.50;;
70832;SDS011;71099;59.528;17.886;2024-01-27T06:32:48;3.53;;;0.65;;
70832;SDS011;71099;59.528;17.886;2024-01-27T06:35:13;1.42;;;0.52;;
70832;SDS011;71099;59.528;17.886;2024-01-27T06:37:39;1.23;;;0.70;;
70832;SDS011;71099;59.528;17.886;2024-01-27T06:40:05;1.50;;;0.80;;
70832;SDS011;71099;59.528;17.886;2024-01-27T06:42:31;3.58;;;0.93;;
70832;SDS011;71099;59.528;17.886;2024-01-27T06:44:57;0.93;;;0.50;;
70832;SDS011;71099;59.528;17.886;2024-01-27T06:47:22;2.58;;;0.60;;
70832;SDS011;71099;59.528;17.886;2024-01-27T06:49:47;3.20;;;0.85;;
70832;SDS011;71099;59.528;17.886;2024-01-27T06:52:13;2.88;;;0.60;;
70832;SDS011;71099;59.528;17.886;2024-01-27T06:54:38;0.82;;;0.70;;
70832;SDS011;71099;59.528;17.886;2024-01-27T06:57:17;1.52;;;0.70;;
70832;SDS011;71099;59.528;17.886;2024-01-27T06:59:49;1.50;;;1.02;;
70832;SDS011;71099;59.528;17.886;2024-01-27T07:02:26;2.33;;;0.52;;
70832;SDS011;71099;59.528;17.886;2024-01-27T07:04:52;1.67;;;0.88;;
70832;SDS011;71099;59.528;17.886;2024-01-27T07:07:25;4.13;;;1.23;;
70832;SDS011;71099;59.528;17.886;2024-01-27T07:09:51;4.65;;;0.88;;
70832;SDS011;71099;59.528;17.886;2024-01-27T07:12:17;0.50;;;0.50;;
70832;SDS011;71099;59.528;17.886;2024-01-27T07:14:43;2.78;;;0.60;;
70832;SDS011;71099;59.528;17.886;2024-01-27T07:17:08;1.75;;;1.05;;
70832;SDS011;71099;59.528;17.886;2024-01-27T07:19:34;0.80;;;0.60;;
70832;SDS011;71099;59.528;17.886;2024-01-27T07:21:59;2.95;;;0.60;;
70832;SDS011;71099;59.528;17.886;2024-01-27T07:24:25;5.75;;;1.90;;
70832;SDS011;71099;59.528;17.886;2024-01-27T07:26:51;2.00;;;0.60;;
70832;SDS011;71099;59.528;17.886;2024-01-27T07:29:17;2.83;;;0.77;;
70832;SDS011;71099;59.528;17.886;2024-01-27T07:31:42;1.05;;;0.85;;
70832;SDS011;71099;59.528;17.886;2024-01-27T07:34:07;6.82;;;2.35;;
70832;SDS011;71099;59.528;17.886;2024-01-27T07:36:33;4.32;;;0.70;;
70832;SDS011;71099;59.528;17.886;2024-01-27T07:38:59;1.85;;;0.60;;
70832;SDS011;71099;59.528;17.886;2024-01-27T07:41:24;3.60;;;0.80;;
70832;SDS011;71099;59.528;17.886;2024-01-27T07:43:50;1.10;;;0.80;;
70832;SDS011;71099;59.528;17.886;2024-01-27T07:46:16;3.45;;;0.60;;
70832;SDS011;71099;59.528;17.886;2024-01-27T07:48:41;8.15;;;1.40;;
70832;SDS011;71099;59.528;17.886;2024-01-27T07:51:07;4.47;;;1.13;;
70832;SDS011;71099;59.528;17.886;2024-01-27T07:53:33;5.50;;;1.25;;
70832;SDS011;71099;59.528;17.886;2024-01-27T07:55:58;5.43;;;1.52;;
70832;SDS011;71099;59.528;17.886;2024-01-27T07:58:24;8.23;;;2.00;;
70832;SDS011;71099;59.528;17.886;2024-01-27T08:00:49;2.83;;;1.70;;
70832;SDS011;71099;59.528;17.886;2024-01-27T08:03:15;5.18;;;0.93;;
70832;SDS011;71099;59.528;17.886;2024-01-27T08:05:40;6.05;;;1.30;;
70832;SDS011;71099;59.528;17.886;2024-01-27T08:08:05;4.80;;;1.10;;
70832;SDS011;71099;59.528;17.886;2024-01-27T08:10:31;6.55;;;1.02;;
70832;SDS011;71099;59.528;17.886;2024-01-27T08:12:56;9.52;;;1.83;;
70832;SDS011;71099;59.528;17.886;2024-01-27T08:15:22;4.00;;;1.02;;
70832;SDS011;71099;59.528;17.886;2024-01-27T08:17:47;3.83;;;1.17;;
70832;SDS011;71099;59.528;17.886;2024-01-27T08:20:13;2.30;;;1.15;;
70832;SDS011;71099;59.528;17.886;2024-01-27T08:22:39;10.80;;;2.08;;
70832;SDS011;71099;59.528;17.886;2024-01-27T08:25:05;3.38;;;1.08;;
70832;SDS011;71099;59.528;17.886;2024-01-27T08:27:30;13.57;;;1.88;;
70832;SDS011;71099;59.528;17.886;2024-01-27T08:29:56;2.40;;;0.90;;
70832;SDS011;71099;59.528;17.886;2024-01-27T08:32:21;4.45;;;1.23;;
70832;SDS011;71099;59.528;17.886;2024-01-27T08:34:47;12.68;;;1.70;;
70832;SDS011;71099;59.528;17.886;2024-01-27T08:37:17;4.13;;;1.13;;
70832;SDS011;71099;59.528;17.886;2024-01-27T08:39:44;4.78;;;0.80;;
70832;SDS011;71099;59.528;17.886;2024-01-27T08:42:10;2.15;;;1.52;;
70832;SDS011;71099;59.528;17.886;2024-01-27T08:44:36;6.90;;;1.08;;
70832;SDS011;71099;59.528;17.886;2024-01-27T08:47:01;4.07;;;1.08;;
70832;SDS011;71099;59.528;17.886;2024-01-27T08:49:27;3.67;;;1.15;;
70832;SDS011;71099;59.528;17.886;2024-01-27T08:51:52;6.05;;;1.67;;
70832;SDS011;71099;59.528;17.886;2024-01-27T08:54:18;5.22;;;1.42;;
70832;SDS011;71099;59.528;17.886;2024-01-27T08:56:44;5.03;;;1.17;;
70832;SDS011;71099;59.528;17.886;2024-01-27T08:59:09;6.93;;;1.60;;
70832;SDS011;71099;59.528;17.886;2024-01-27T09:01:35;7.05;;;1.90;;
70832;SDS011;71099;59.528;17.886;2024-01-27T09:04:00;5.05;;;1.25;;
70832;SDS011;71099;59.528;17.886;2024-01-27T09:06:26;8.07;;;1.63;;
70832;SDS011;71099;59.528;17.886;2024-01-27T09:08:51;8.38;;;1.65;;
70832;SDS011;71099;59.528;17.886;2024-01-27T09:11:17;4.43;;;1.17;;
70832;SDS011;71099;59.528;17.886;2024-01-27T09:13:42;4.03;;;1.17;;
70832;SDS011;71099;59.528;17.886;2024-01-27T09:16:09;7.60;;;1.73;;
70832;SDS011;71099;59.528;17.886;2024-01-27T09:18:37;5.22;;;1.17;;
70832;SDS011;71099;59.528;17.886;2024-01-27T09:21:03;7.20;;;1.70;;
70832;SDS011;71099;59.528;17.886;2024-01-27T09:23:28;7.80;;;1.60;;
70832;SDS011;71099;59.528;17.886;2024-01-27T09:25:53;11.18;;;1.58;;
70832;SDS011;71099;59.528;17.886;2024-01-27T09:28:19;7.55;;;2.08;;
70832;SDS011;71099;59.528;17.886;2024-01-27T09:30:44;7.20;;;1.58;;
70832;SDS011;71099;59.528;17.886;2024-01-27T09:33:10;13.90;;;2.17;;
70832;SDS011;71099;59.528;17.886;2024-01-27T09:35:36;11.18;;;1.65;;
70832;SDS011;71099;59.528;17.886;2024-01-27T09:38:01;5.25;;;1.42;;
70832;SDS011;71099;59.528;17.886;2024-01-27T09:40:27;6.10;;;1.73;;
70832;SDS011;71099;59.528;17.886;2024-01-27T09:42:53;6.32;;;1.20;;
70832;SDS011;71099;59.528;17.886;2024-01-27T09:45:23;4.72;;;1.00;;
70832;SDS011;71099;59.528;17.886;2024-01-27T09:47:49;6.57;;;1.73;;
70832;SDS011;71099;59.528;17.886;2024-01-27T09:50:17;3.13;;;1.00;;
70832;SDS011;71099;59.528;17.886;2024-01-27T09:52:43;7.45;;;2.90;;
70832;SDS011;71099;59.528;17.886;2024-01-27T09:55:09;3.85;;;1.05;;
70832;SDS011;71099;59.528;17.886;2024-01-27T09:57:35;6.07;;;1.23;;
70832;SDS011;71099;59.528;17.886;2024-01-27T10:00:03;4.00;;;1.20;;
70832;SDS011;71099;59.528;17.886;2024-01-27T10:02:30;4.13;;;1.75;;
70832;SDS011;71099;59.528;17.886;2024-01-27T10:04:58;11.45;;;1.40;;
70832;SDS011;71099;59.528;17.886;2024-01-27T10:07:24;7.43;;;1.42;;
70832;SDS011;71099;59.528;17.886;2024-01-27T10:09:50;6.80;;;1.58;;
70832;SDS011;71099;59.528;17.886;2024-01-27T10:12:15;3.55;;;1.30;;
70832;SDS011;71099;59.528;17.886;2024-01-27T10:14:43;7.85;;;1.40;;
70832;SDS011;71099;59.528;17.886;2024-01-27T10:17:20;7.13;;;2.25;;
70832;SDS011;71099;59.528;17.886;2024-01-27T10:20:01;4.65;;;1.33;;
70832;SDS011;71099;59.528;17.886;2024-01-27T10:22:37;4.70;;;1.65;;
70832;SDS011;71099;59.528;17.886;2024-01-27T10:25:04;3.20;;;0.93;;
70832;SDS011;71099;59.528;17.886;2024-01-27T10:27:29;5.22;;;1.40;;
70832;SDS011;71099;59.528;17.886;2024-01-27T10:29:55;8.05;;;1.30;;
70832;SDS011;71099;59.528;17.886;2024-01-27T10:32:21;2.53;;;1.17;;
70832;SDS011;71099;59.528;17.886;2024-01-27T10:34:50;10.60;;;1.85;;
70832;SDS011;71099;59.528;17.886;2024-01-27T10:37:26;5.38;;;2.33;;
70832;SDS011;71099;59.528;17.886;2024-01-27T10:39:58;7.93;;;1.75;;
70832;SDS011;71099;59.528;17.886;2024-01-27T10:42:28;6.03;;;2.67;;
70832;SDS011;71099;59.528;17.886;2024-01-27T10:44:57;4.55;;;1.20;;
70832;SDS011;71099;59.528;17.886;2024-01-27T10:47:25;3.00;;;1.30;;
70832;SDS011;71099;59.528;17.886;2024-01-27T10:49:54;5.55;;;1.73;;
70832;SDS011;71099;59.528;17.886;2024-01-27T10:52:21;8.45;;;1.40;;
70832;SDS011;71099;59.528;17.886;2024-01-27T10:54:53;7.88;;;1.13;;
70832;SDS011;71099;59.528;17.886;2024-01-27T10:57:40;4.88;;;1.45;;
70832;SDS011;71099;59.528;17.886;2024-01-27T11:00:06;16.92;;;3.83;;
70832;SDS011;71099;59.528;17.886;2024-01-27T11:02:33;9.27;;;1.80;;
70832;SDS011;71099;59.528;17.886;2024-01-27T11:05:03;7.20;;;1.35;;
70832;SDS011;71099;59.528;17.886;2024-01-27T11:07:32;8.15;;;1.70;;
70832;SDS011;71099;59.528;17.886;2024-01-27T11:09:58;3.58;;;1.45;;
70832;SDS011;71099;59.528;17.886;2024-01-27T11:12:24;8.95;;;1.75;;
70832;SDS011;71099;59.528;17.886;2024-01-27T11:14:50;4.25;;;1.20;;
70832;SDS011;71099;59.528;17.886;2024-01-27T11:17:17;9.40;;;1.10;;
70832;SDS011;71099;59.528;17.886;2024-01-27T11:19:44;5.45;;;1.20;;
70832;SDS011;71099;59.528;17.886;2024-01-27T11:22:23;6.20;;;1.55;;
70832;SDS011;71099;59.528;17.886;2024-01-27T11:24:51;4.38;;;1.40;;
70832;SDS011;71099;59.528;17.886;2024-01-27T11:27:16;6.35;;;2.30;;
70832;SDS011;71099;59.528;17.886;2024-01-27T11:29:48;5.13;;;1.40;;
70832;SDS011;71099;59.528;17.886;2024-01-27T11:32:14;8.23;;;1.48;;
70832;SDS011;71099;59.528;17.886;2024-01-27T11:34:43;6.60;;;1.50;;
70832;SDS011;71099;59.528;17.886;2024-01-27T11:37:11;4.95;;;1.05;;
70832;SDS011;71099;59.528;17.886;2024-01-27T11:39:37;5.65;;;1.30;;
70832;SDS011;71099;59.528;17.886;2024-01-27T11:42:06;7.25;;;1.40;;
70832;SDS011;71099;59.528;17.886;2024-01-27T11:44:36;4.78;;;1.48;;
70832;SDS011;71099;59.528;17.886;2024-01-27T11:47:02;5.65;;;1.02;;
70832;SDS011;71099;59.528;17.886;2024-01-27T11:49:28;16.13;;;3.55;;
70832;SDS011;71099;59.528;17.886;2024-01-27T11:51:54;3.88;;;2.38;;
70832;SDS011;71099;59.528;17.886;2024-01-27T11:54:20;4.10;;;1.10;;
70832;SDS011;71099;59.528;17.886;2024-01-27T11:56:45;9.02;;;1.40;;
70832;SDS011;71099;59.528;17.886;2024-01-27T11:59:11;8.80;;;2.00;;
70832;SDS011;71099;59.528;17.886;2024-01-27T12:01:36;6.47;;;1.17;;
70832;SDS011;71099;59.528;17.886;2024-01-27T12:04:03;5.72;;;1.23;;
70832;SDS011;71099;59.528;17.886;2024-01-27T12:06:29;4.22;;;1.10;;
70832;SDS011;71099;59.528;17.886;2024-01-27T12:08:55;7.75;;;2.15;;
70832;SDS011;71099;59.528;17.886;2024-01-27T12:11:22;4.53;;;1.17;;
70832;SDS011;71099;59.528;17.886;2024-01-27T12:13:49;13.85;;;3.58;;
70832;SDS011;71099;59.528;17.886;2024-01-27T12:16:15;14.60;;;3.30;;
70832;SDS011;71099;59.528;17.886;2024-01-27T12:18:41;8.43;;;4.68;;
70832;SDS011;71099;59.528;17.886;2024-01-27T12:21:06;15.73;;;4.40;;
70832;SDS011;71099;59.528;17.886;2024-01-27T12:23:32;10.70;;;4.90;;
70832;SDS011;71099;59.528;17.886;2024-01-27T12:25:57;7.38;;;3.35;;
70832;SDS011;71099;59.528;17.886;2024-01-27T12:28:23;8.27;;;2.92;;
70832;SDS011;71099;59.528;17.886;2024-01-27T12:30:52;7.47;;;3.50;;
70832;SDS011;71099;59.528;17.886;2024-01-27T12:33:18;16.13;;;3.30;;
70832;SDS011;71099;59.528;17.886;2024-01-27T12:35:48;6.75;;;2.67;;
70832;SDS011;71099;59.528;17.886;2024-01-27T12:38:19;5.20;;;3.08;;
70832;SDS011;71099;59.528;17.886;2024-01-27T12:40:44;8.85;;;2.53;;
70832;SDS011;71099;59.528;17.886;2024-01-27T12:43:09;6.35;;;2.72;;
70832;SDS011;71099;59.528;17.886;2024-01-27T12:45:35;7.57;;;2.35;;
70832;SDS011;71099;59.528;17.886;2024-01-27T12:48:00;8.38;;;3.95;;
70832;SDS011;71099;59.528;17.886;2024-01-27T12:50:27;6.22;;;1.60;;
70832;SDS011;71099;59.528;17.886;2024-01-27T12:52:53;8.32;;;3.35;;
70832;SDS011;71099;59.528;17.886;2024-01-27T12:55:19;6.22;;;1.60;;
70832;SDS011;71099;59.528;17.886;2024-01-27T12:57:46;6.30;;;1.45;;
70832;SDS011;71099;59.528;17.886;2024-01-27T13:00:12;6.28;;;2.40;;
70832;SDS011;71099;59.528;17.886;2024-01-27T13:02:39;6.45;;;1.92;;
70832;SDS011;71099;59.528;17.886;2024-01-27T13:05:05;6.38;;;1.63;;
70832;SDS011;71099;59.528;17.886;2024-01-27T13:07:30;8.10;;;1.08;;
70832;SDS011;71099;59.528;17.886;2024-01-27T13:09:56;4.70;;;1.05;;
70832;SDS011;71099;59.528;17.886;2024-01-27T13:12:22;4.32;;;1.35;;
70832;SDS011;71099;59.528;17.886;2024-01-27T13:14:48;5.32;;;2.55;;
70832;SDS011;71099;59.528;17.886;2024-01-27T13:17:14;2.65;;;0.50;;
70832;SDS011;71099;59.528;17.886;2024-01-27T13:19:40;2.80;;;0.80;;
70832;SDS011;71099;59.528;17.886;2024-01-27T13:22:06;6.43;;;1.08;;
70832;SDS011;71099;59.528;17.886;2024-01-27T13:24:32;6.28;;;1.17;;
70832;SDS011;71099;59.528;17.886;2024-01-27T13:26:57;4.95;;;1.80;;
70832;SDS011;71099;59.528;17.886;2024-01-27T13:29:23;5.57;;;1.00;;
70832;SDS011;71099;59.528;17.886;2024-01-27T13:31:49;4.63;;;1.48;;
70832;SDS011;71099;59.528;17.886;2024-01-27T13:34:14;7.07;;;1.50;;
70832;SDS011;71099;59.528;17.886;2024-01-27T13:36:40;7.80;;;2.65;;
70832;SDS011;71099;59.528;17.886;2024-01-27T13:39:05;7.38;;;4.50;;
70832;SDS011;71099;59.528;17.886;2024-01-27T13:41:31;11.13;;;1.73;;
70832;SDS011;71099;59.528;17.886;2024-01-27T13:43:56;10.18;;;1.67;;
70832;SDS011;71099;59.528;17.886;2024-01-27T13:46:21;4.90;;;1.50;;
70832;SDS011;71099;59.528;17.886;2024-01-27T13:48:48;16.63;;;3.05;;
70832;SDS011;71099;59.528;17.886;2024-01-27T13:51:14;9.45;;;1.75;;
70832;SDS011;71099;59.528;17.886;2024-01-27T13:53:39;5.35;;;1.73;;
70832;SDS011;71099;59.528;17.886;2024-01-27T13:59:27;6.30;;;2.88;;
70832;SDS011;71099;59.528;17.886;2024-01-27T14:01:53;5.47;;;2.55;;
70832;SDS011;71099;59.528;17.886;2024-01-27T14:04:18;4.90;;;1.58;;
70832;SDS011;71099;59.528;17.886;2024-01-27T14:06:44;10.98;;;1.48;;
70832;SDS011;71099;59.528;17.886;2024-01-27T14:09:09;13.50;;;3.05;;
70832;SDS011;71099;59.528;17.886;2024-01-27T14:11:35;9.77;;;2.30;;
70832;SDS011;71099;59.528;17.886;2024-01-27T14:14:00;10.55;;;1.90;;
70832;SDS011;71099;59.528;17.886;2024-01-27T14:16:26;9.68;;;1.52;;
70832;SDS011;71099;59.528;17.886;2024-01-27T14:18:51;7.32;;;1.52;;
70832;SDS011;71099;59.528;17.886;2024-01-27T14:21:17;9.32;;;2.30;;
70832;SDS011;71099;59.528;17.886;2024-01-27T14:23:42;5.18;;;1.33;;
70832;SDS011;71099;59.528;17.886;2024-01-27T14:26:07;5.68;;;2.30;;
70832;SDS011;71099;59.528;17.886;2024-01-27T14:28:40;3.40;;;1.25;;
70832;SDS011;71099;59.528;17.886;2024-01-27T14:31:08;12.35;;;2.53;;